sensor_id;sensor_type;location;lat;lon;timestamp;P1;durP1;ratioP1;P2;durP2;ratioP2
64244;SDS011;50584;29.058;-110.966;2023-02-11T00:02:02;4.45;;;0.77;;
64244;SDS011;50584;29.058;-110.966;2023-02-11T00:04:29;3.05;;;1.13;;
64244;SDS011;50584;29.058;-110.966;2023-02-11T00:06:55;5.25;;;0.90;;
64244;SDS011;50584;29.058;-110.966;2023-02-11T00:09:21;7.93;;;1.10;;
64244;SDS011;50584;29.058;-110.966;2023-02-11T00:11:47;7.18;;;1.85;;
64244;SDS011;50584;29.058;-110.966;2023-02-11T00:14:13;5.82;;;0.85;;
64244;SDS011;50584;29.058;-110.966;2023-02-11T00:16:39;2.90;;;1.00;;
64244;SDS011;50584;29.058;-110.966;2023-02-11T00:19:04;12.57;;;1.27;;
64244;SDS011;50584;29.058;-110.966;2023-02-11T00:21:31;8.15;;;0.73;;
64244;SDS011;50584;29.058;-110.966;2023-02-11T00:23:57;3.10;;;0.85;;
64244;SDS011;50584;29.058;-110.966;2023-02-11T00:26:27;3.60;;;1.38;;
64244;SDS011;50584;29.058;-110.966;2023-02-11T00:28:53;3.85;;;1.10;;
64244;SDS011;50584;29.058;-110.966;2023-02-11T00:31:19;2.65;;;0.60;;
64244;SDS011;50584;29.058;-110.966;2023-02-11T00:33:45;11.25;;;0.95;;
64244;SDS011;50584;29.058;-110.966;2023-02-11T00:36:15;3.08;;;0.80;;
64244;SDS011;50584;29.058;-110.966;2023-02-11T00:38:45;3.97;;;0.80;;
64244;SDS011;50584;29.058;-110.966;2023-02-11T00:41:11;1.58;;;1.15;;
64244;SDS011;50584;29.058;-110.966;2023-02-11T00:43:38;5.28;;;1.27;;
64244;SDS011;50584;29.058;-110.966;2023-02-11T00:46:04;1.67;;;0.75;;
64244;SDS011;50584;29.058;-110.966;2023-02-11T00:48:29;6.43;;;1.20;;
64244;SDS011;50584;29.058;-110.966;2023-02-11T00:50:55;6.13;;;1.05;;
64244;SDS011;50584;29.058;-110.966;2023-02-11T00:53:21;4.07;;;1.10;;
64244;SDS011;50584;29.058;-110.966;2023-02-11T00:55:47;4.38;;;1.00;;
64244;SDS011;50584;29.058;-110.966;2023-02-11T00:58:13;2.47;;;0.95;;
64244;SDS011;50584;29.058;-110.966;2023-02-11T01:00:38;4.35;;;0.90;;
64244;SDS011;50584;29.058;-110.966;2023-02-11T01:03:04;5.18;;;1.00;;
64244;SDS011;50584;29.058;-110.966;2023-02-11T01:05:30;2.92;;;0.75;;
64244;SDS011;50584;29.058;-110.966;2023-02-11T01:07:56;2.70;;;0.82;;
64244;SDS011;50584;29.058;-110.966;2023-02-11T01:10:22;2.60;;;0.75;;
64244;SDS011;50584;29.058;-110.966;2023-02-11T01:12:48;1.02;;;0.75;;
64244;SDS011;50584;29.058;-110.966;2023-02-11T01:15:15;5.05;;;0.90;;
64244;SDS011;50584;29.058;-110.966;2023-02-11T01:17:41;9.60;;;1.20;;
64244;SDS011;50584;29.058;-110.966;2023-02-11T01:20:07;4.15;;;0.93;;
64244;SDS011;50584;29.058;-110.966;2023-02-11T01:22:33;3.50;;;0.98;;
64244;SDS011;50584;29.058;-110.966;2023-02-11T01:25:04;5.00;;;0.85;;
64244;SDS011;50584;29.058;-110.966;2023-02-11T01:27:30;4.20;;;0.93;;
64244;SDS011;50584;29.058;-110.966;2023-02-11T01:29:56;3.03;;;0.88;;
64244;SDS011;50584;29.058;-110.966;2023-02-11T01:32:22;6.45;;;1.38;;
64244;SDS011;50584;29.058;-110.966;2023-02-11T01:34:47;11.70;;;1.95;;
64244;SDS011;50584;29.058;-110.966;2023-02-11T01:37:13;5.60;;;1.00;;
64244;SDS011;50584;29.058;-110.966;2023-02-11T01:39:39;2.72;;;1.13;;
64244;SDS011;50584;29.058;-110.966;2023-02-11T01:42:05;8.48;;;1.27;;
64244;SDS011;50584;29.058;-110.966;2023-02-11T01:44:32;2.53;;;1.10;;
64244;SDS011;50584;29.058;-110.966;2023-02-11T01:46:58;2.92;;;0.90;;
64244;SDS011;50584;29.058;-110.966;2023-02-11T01:49:25;1.35;;;1.15;;
64244;SDS011;50584;29.058;-110.966;2023-02-11T01:51:54;3.05;;;1.10;;
64244;SDS011;50584;29.058;-110.966;2023-02-11T01:54:21;4.45;;;1.10;;
64244;SDS011;50584;29.058;-110.966;2023-02-11T01:57:07;6.80;;;1.48;;
64244;SDS011;50584;29.058;-110.966;2023-02-11T02:02:12;4.07;;;1.45;;
64244;SDS011;50584;29.058;-110.966;2023-02-11T02:04:49;4.88;;;1.30;;
64244;SDS011;50584;29.058;-110.966;2023-02-11T02:07:19;5.65;;;1.08;;
64244;SDS011;50584;29.058;-110.966;2023-02-11T02:09:48;6.68;;;1.75;;
64244;SDS011;50584;29.058;-110.966;2023-02-11T02:12:16;2.90;;;2.15;;
64244;SDS011;50584;29.058;-110.966;2023-02-11T02:14:42;5.53;;;2.35;;
64244;SDS011;50584;29.058;-110.966;2023-02-11T02:25:23;6.45;;;1.75;;
64244;SDS011;50584;29.058;-110.966;2023-02-11T02:43:07;23.42;;;4.40;;
64244;SDS011;50584;29.058;-110.966;2023-02-11T02:45:35;31.65;;;5.70;;
64244;SDS011;50584;29.058;-110.966;2023-02-11T02:48:01;10.73;;;3.53;;
64244;SDS011;50584;29.058;-110.966;2023-02-11T02:50:29;9.68;;;3.08;;
64244;SDS011;50584;29.058;-110.966;2023-02-11T02:53:09;7.45;;;2.58;;
64244;SDS011;50584;29.058;-110.966;2023-02-11T02:55:40;11.80;;;3.17;;
64244;SDS011;50584;29.058;-110.966;2023-02-11T03:05:48;13.43;;;2.42;;
64244;SDS011;50584;29.058;-110.966;2023-02-11T03:08:21;12.57;;;2.63;;
64244;SDS011;50584;29.058;-110.966;2023-02-11T03:13:14;14.77;;;3.45;;
64244;SDS011;50584;29.058;-110.966;2023-02-11T03:15:44;10.57;;;3.00;;
64244;SDS011;50584;29.058;-110.966;2023-02-11T03:18:12;14.60;;;2.25;;
64244;SDS011;50584;29.058;-110.966;2023-02-11T03:20:41;9.77;;;2.00;;
64244;SDS011;50584;29.058;-110.966;2023-02-11T03:23:10;5.97;;;1.77;;
64244;SDS011;50584;29.058;-110.966;2023-02-11T03:25:40;5.55;;;1.60;;
64244;SDS011;50584;29.058;-110.966;2023-02-11T03:30:48;14.25;;;3.17;;
64244;SDS011;50584;29.058;-110.966;2023-02-11T03:33:26;5.72;;;1.40;;
64244;SDS011;50584;29.058;-110.966;2023-02-11T03:35:54;8.43;;;1.45;;
64244;SDS011;50584;29.058;-110.966;2023-02-11T03:38:22;4.28;;;1.95;;
64244;SDS011;50584;29.058;-110.966;2023-02-11T03:40:49;12.45;;;2.20;;
64244;SDS011;50584;29.058;-110.966;2023-02-11T03:43:19;6.53;;;1.83;;
64244;SDS011;50584;29.058;-110.966;2023-02-11T03:45:47;7.53;;;1.90;;
64244;SDS011;50584;29.058;-110.966;2023-02-11T03:48:15;13.80;;;2.53;;
64244;SDS011;50584;29.058;-110.966;2023-02-11T03:50:41;15.27;;;2.67;;
64244;SDS011;50584;29.058;-110.966;2023-02-11T03:53:08;11.95;;;3.20;;
64244;SDS011;50584;29.058;-110.966;2023-02-11T03:55:35;23.23;;;3.00;;
64244;SDS011;50584;29.058;-110.966;2023-02-11T03:58:03;4.05;;;2.67;;
64244;SDS011;50584;29.058;-110.966;2023-02-11T04:00:33;7.22;;;3.30;;
64244;SDS011;50584;29.058;-110.966;2023-02-11T04:02:59;12.90;;;3.58;;
64244;SDS011;50584;29.058;-110.966;2023-02-11T04:05:25;20.30;;;3.60;;
64244;SDS011;50584;29.058;-110.966;2023-02-11T04:07:51;11.45;;;3.80;;
64244;SDS011;50584;29.058;-110.966;2023-02-11T04:10:17;16.42;;;3.60;;
64244;SDS011;50584;29.058;-110.966;2023-02-11T04:12:43;17.08;;;4.20;;
64244;SDS011;50584;29.058;-110.966;2023-02-11T04:15:09;20.95;;;4.22;;
64244;SDS011;50584;29.058;-110.966;2023-02-11T04:17:35;25.25;;;4.60;;
64244;SDS011;50584;29.058;-110.966;2023-02-11T04:20:00;33.22;;;5.93;;
64244;SDS011;50584;29.058;-110.966;2023-02-11T04:22:26;39.42;;;14.23;;
64244;SDS011;50584;29.058;-110.966;2023-02-11T04:24:52;25.25;;;7.00;;
64244;SDS011;50584;29.058;-110.966;2023-02-11T04:27:18;14.77;;;4.85;;
64244;SDS011;50584;29.058;-110.966;2023-02-11T04:29:43;25.80;;;4.18;;
64244;SDS011;50584;29.058;-110.966;2023-02-11T04:32:10;50.85;;;18.63;;
64244;SDS011;50584;29.058;-110.966;2023-02-11T04:34:36;46.75;;;17.80;;
64244;SDS011;50584;29.058;-110.966;2023-02-11T04:37:01;16.90;;;5.78;;
64244;SDS011;50584;29.058;-110.966;2023-02-11T04:39:27;35.13;;;9.73;;
64244;SDS011;50584;29.058;-110.966;2023-02-11T04:41:53;16.73;;;7.13;;
64244;SDS011;50584;29.058;-110.966;2023-02-11T04:44:19;25.02;;;8.23;;
64244;SDS011;50584;29.058;-110.966;2023-02-11T04:46:45;23.25;;;8.65;;
64244;SDS011;50584;29.058;-110.966;2023-02-11T04:49:14;23.00;;;7.88;;
64244;SDS011;50584;29.058;-110.966;2023-02-11T04:51:40;28.92;;;8.10;;
64244;SDS011;50584;29.058;-110.966;2023-02-11T04:54:06;14.75;;;7.15;;
64244;SDS011;50584;29.058;-110.966;2023-02-11T04:56:32;27.67;;;7.38;;
64244;SDS011;50584;29.058;-110.966;2023-02-11T04:58:58;20.67;;;6.07;;
64244;SDS011;50584;29.058;-110.966;2023-02-11T05:01:23;29.05;;;6.97;;
64244;SDS011;50584;29.058;-110.966;2023-02-11T05:03:49;29.17;;;6.53;;
64244;SDS011;50584;29.058;-110.966;2023-02-11T05:06:15;33.55;;;6.03;;
64244;SDS011;50584;29.058;-110.966;2023-02-11T05:08:41;30.27;;;5.22;;
64244;SDS011;50584;29.058;-110.966;2023-02-11T05:11:07;56.58;;;5.78;;
64244;SDS011;50584;29.058;-110.966;2023-02-11T05:13:33;45.17;;;6.03;;
64244;SDS011;50584;29.058;-110.966;2023-02-11T05:15:59;30.55;;;5.55;;
64244;SDS011;50584;29.058;-110.966;2023-02-11T05:18:24;19.45;;;5.20;;
64244;SDS011;50584;29.058;-110.966;2023-02-11T05:20:50;27.67;;;5.00;;
64244;SDS011;50584;29.058;-110.966;2023-02-11T05:23:16;29.90;;;7.22;;
64244;SDS011;50584;29.058;-110.966;2023-02-11T05:25:42;32.00;;;6.15;;
64244;SDS011;50584;29.058;-110.966;2023-02-11T05:28:07;33.33;;;5.90;;
64244;SDS011;50584;29.058;-110.966;2023-02-11T05:30:33;28.65;;;6.28;;
64244;SDS011;50584;29.058;-110.966;2023-02-11T05:32:59;24.30;;;6.78;;
64244;SDS011;50584;29.058;-110.966;2023-02-11T05:35:25;35.60;;;8.23;;
64244;SDS011;50584;29.058;-110.966;2023-02-11T05:37:53;32.03;;;7.18;;
64244;SDS011;50584;29.058;-110.966;2023-02-11T05:40:19;25.02;;;7.38;;
64244;SDS011;50584;29.058;-110.966;2023-02-11T05:42:45;31.42;;;8.15;;
64244;SDS011;50584;29.058;-110.966;2023-02-11T05:45:11;20.65;;;7.38;;
64244;SDS011;50584;29.058;-110.966;2023-02-11T05:47:36;49.25;;;9.02;;
64244;SDS011;50584;29.058;-110.966;2023-02-11T05:50:02;21.27;;;6.90;;
64244;SDS011;50584;29.058;-110.966;2023-02-11T05:52:28;26.70;;;7.20;;
64244;SDS011;50584;29.058;-110.966;2023-02-11T05:54:54;25.27;;;7.90;;
64244;SDS011;50584;29.058;-110.966;2023-02-11T05:57:20;33.90;;;11.25;;
64244;SDS011;50584;29.058;-110.966;2023-02-11T05:59:46;32.67;;;10.82;;
64244;SDS011;50584;29.058;-110.966;2023-02-11T06:02:11;21.15;;;7.85;;
64244;SDS011;50584;29.058;-110.966;2023-02-11T06:04:37;33.58;;;8.55;;
64244;SDS011;50584;29.058;-110.966;2023-02-11T06:07:03;31.90;;;9.18;;
64244;SDS011;50584;29.058;-110.966;2023-02-11T06:09:29;19.75;;;7.15;;
64244;SDS011;50584;29.058;-110.966;2023-02-11T06:11:55;27.33;;;6.80;;
64244;SDS011;50584;29.058;-110.966;2023-02-11T06:14:21;26.98;;;7.13;;
64244;SDS011;50584;29.058;-110.966;2023-02-11T06:16:46;24.13;;;6.07;;
64244;SDS011;50584;29.058;-110.966;2023-02-11T06:19:12;25.98;;;6.72;;
64244;SDS011;50584;29.058;-110.966;2023-02-11T06:21:38;27.58;;;6.18;;
64244;SDS011;50584;29.058;-110.966;2023-02-11T06:24:04;19.08;;;5.00;;
64244;SDS011;50584;29.058;-110.966;2023-02-11T06:26:30;17.63;;;4.97;;
64244;SDS011;50584;29.058;-110.966;2023-02-11T06:28:59;23.65;;;4.97;;
64244;SDS011;50584;29.058;-110.966;2023-02-11T06:31:25;27.17;;;4.90;;
64244;SDS011;50584;29.058;-110.966;2023-02-11T06:33:51;26.05;;;4.20;;
64244;SDS011;50584;29.058;-110.966;2023-02-11T06:36:20;19.92;;;4.40;;
64244;SDS011;50584;29.058;-110.966;2023-02-11T06:38:46;19.42;;;4.13;;
64244;SDS011;50584;29.058;-110.966;2023-02-11T06:41:12;13.13;;;3.88;;
64244;SDS011;50584;29.058;-110.966;2023-02-11T06:43:39;15.02;;;4.53;;
64244;SDS011;50584;29.058;-110.966;2023-02-11T06:46:05;22.63;;;4.78;;
64244;SDS011;50584;29.058;-110.966;2023-02-11T06:48:31;13.05;;;4.60;;
64244;SDS011;50584;29.058;-110.966;2023-02-11T06:51:00;13.40;;;3.83;;
64244;SDS011;50584;29.058;-110.966;2023-02-11T06:53:26;17.50;;;4.28;;
64244;SDS011;50584;29.058;-110.966;2023-02-11T06:55:52;13.05;;;4.40;;
64244;SDS011;50584;29.058;-110.966;2023-02-11T06:58:18;18.10;;;4.45;;
64244;SDS011;50584;29.058;-110.966;2023-02-11T07:00:43;15.30;;;5.10;;
64244;SDS011;50584;29.058;-110.966;2023-02-11T07:03:09;17.13;;;4.10;;
64244;SDS011;50584;29.058;-110.966;2023-02-11T07:05:35;13.45;;;4.25;;
64244;SDS011;50584;29.058;-110.966;2023-02-11T07:08:03;20.45;;;5.15;;
64244;SDS011;50584;29.058;-110.966;2023-02-11T07:10:28;16.90;;;3.97;;
64244;SDS011;50584;29.058;-110.966;2023-02-11T07:12:54;15.93;;;3.90;;
64244;SDS011;50584;29.058;-110.966;2023-02-11T07:15:20;28.52;;;4.00;;
64244;SDS011;50584;29.058;-110.966;2023-02-11T07:17:46;23.50;;;4.50;;
64244;SDS011;50584;29.058;-110.966;2023-02-11T07:20:12;27.15;;;4.82;;
64244;SDS011;50584;29.058;-110.966;2023-02-11T07:22:39;24.83;;;4.75;;
64244;SDS011;50584;29.058;-110.966;2023-02-11T07:25:05;23.73;;;6.03;;
64244;SDS011;50584;29.058;-110.966;2023-02-11T07:27:30;14.48;;;5.75;;
64244;SDS011;50584;29.058;-110.966;2023-02-11T07:29:56;15.82;;;4.68;;
64244;SDS011;50584;29.058;-110.966;2023-02-11T07:32:22;22.55;;;4.70;;
64244;SDS011;50584;29.058;-110.966;2023-02-11T07:34:48;13.35;;;4.22;;
64244;SDS011;50584;29.058;-110.966;2023-02-11T07:37:14;20.80;;;3.80;;
64244;SDS011;50584;29.058;-110.966;2023-02-11T07:39:39;17.75;;;3.88;;
64244;SDS011;50584;29.058;-110.966;2023-02-11T07:42:05;10.65;;;3.58;;
64244;SDS011;50584;29.058;-110.966;2023-02-11T07:44:31;20.45;;;3.20;;
64244;SDS011;50584;29.058;-110.966;2023-02-11T07:46:58;10.32;;;2.83;;
64244;SDS011;50584;29.058;-110.966;2023-02-11T07:49:23;9.70;;;2.65;;
64244;SDS011;50584;29.058;-110.966;2023-02-11T07:51:49;14.65;;;2.50;;
64244;SDS011;50584;29.058;-110.966;2023-02-11T07:54:15;8.40;;;2.83;;
64244;SDS011;50584;29.058;-110.966;2023-02-11T07:56:41;8.77;;;2.63;;
64244;SDS011;50584;29.058;-110.966;2023-02-11T07:59:07;5.97;;;2.20;;
64244;SDS011;50584;29.058;-110.966;2023-02-11T08:01:33;3.15;;;2.30;;
64244;SDS011;50584;29.058;-110.966;2023-02-11T08:04:00;8.05;;;2.80;;
64244;SDS011;50584;29.058;-110.966;2023-02-11T08:06:27;6.40;;;2.35;;
64244;SDS011;50584;29.058;-110.966;2023-02-11T08:08:53;11.57;;;2.95;;
64244;SDS011;50584;29.058;-110.966;2023-02-11T08:11:20;11.15;;;2.90;;
64244;SDS011;50584;29.058;-110.966;2023-02-11T08:13:47;7.15;;;2.78;;
64244;SDS011;50584;29.058;-110.966;2023-02-11T08:16:23;7.80;;;2.67;;
64244;SDS011;50584;29.058;-110.966;2023-02-11T08:18:50;7.15;;;2.17;;
64244;SDS011;50584;29.058;-110.966;2023-02-11T08:21:16;11.50;;;2.22;;
64244;SDS011;50584;29.058;-110.966;2023-02-11T08:23:42;9.07;;;2.53;;
64244;SDS011;50584;29.058;-110.966;2023-02-11T08:26:10;12.23;;;2.45;;
64244;SDS011;50584;29.058;-110.966;2023-02-11T08:28:37;4.90;;;2.80;;
64244;SDS011;50584;29.058;-110.966;2023-02-11T08:31:07;9.40;;;2.50;;
64244;SDS011;50584;29.058;-110.966;2023-02-11T08:33:33;16.92;;;4.78;;
64244;SDS011;50584;29.058;-110.966;2023-02-11T08:35:59;6.75;;;3.65;;
64244;SDS011;50584;29.058;-110.966;2023-02-11T08:38:26;12.73;;;4.57;;
64244;SDS011;50584;29.058;-110.966;2023-02-11T08:40:51;14.27;;;3.85;;
64244;SDS011;50584;29.058;-110.966;2023-02-11T08:43:17;13.57;;;4.35;;
64244;SDS011;50584;29.058;-110.966;2023-02-11T08:45:43;18.80;;;4.65;;
64244;SDS011;50584;29.058;-110.966;2023-02-11T08:48:09;9.55;;;4.13;;
64244;SDS011;50584;29.058;-110.966;2023-02-11T08:50:37;8.20;;;3.60;;
64244;SDS011;50584;29.058;-110.966;2023-02-11T08:53:03;12.60;;;3.88;;
64244;SDS011;50584;29.058;-110.966;2023-02-11T08:55:29;7.10;;;4.00;;
64244;SDS011;50584;29.058;-110.966;2023-02-11T08:57:54;14.18;;;4.20;;
64244;SDS011;50584;29.058;-110.966;2023-02-11T09:00:21;10.77;;;4.53;;
64244;SDS011;50584;29.058;-110.966;2023-02-11T09:02:46;16.42;;;5.70;;
64244;SDS011;50584;29.058;-110.966;2023-02-11T09:05:12;15.57;;;4.38;;
64244;SDS011;50584;29.058;-110.966;2023-02-11T09:07:38;15.20;;;5.05;;
64244;SDS011;50584;29.058;-110.966;2023-02-11T09:10:04;10.52;;;4.80;;
64244;SDS011;50584;29.058;-110.966;2023-02-11T09:12:30;9.55;;;4.28;;
64244;SDS011;50584;29.058;-110.966;2023-02-11T09:14:56;11.98;;;4.40;;
64244;SDS011;50584;29.058;-110.966;2023-02-11T09:17:22;8.45;;;3.65;;
64244;SDS011;50584;29.058;-110.966;2023-02-11T09:19:48;9.90;;;3.95;;
64244;SDS011;50584;29.058;-110.966;2023-02-11T09:22:14;8.20;;;3.38;;
64244;SDS011;50584;29.058;-110.966;2023-02-11T09:24:40;8.88;;;3.35;;
64244;SDS011;50584;29.058;-110.966;2023-02-11T09:27:06;10.27;;;2.50;;
64244;SDS011;50584;29.058;-110.966;2023-02-11T09:29:31;7.15;;;3.38;;
64244;SDS011;50584;29.058;-110.966;2023-02-11T09:31:57;13.80;;;4.20;;
64244;SDS011;50584;29.058;-110.966;2023-02-11T09:34:23;8.13;;;3.45;;
64244;SDS011;50584;29.058;-110.966;2023-02-11T09:36:49;11.52;;;3.58;;
64244;SDS011;50584;29.058;-110.966;2023-02-11T09:39:15;7.40;;;2.10;;
64244;SDS011;50584;29.058;-110.966;2023-02-11T09:44:26;4.10;;;2.13;;
64244;SDS011;50584;29.058;-110.966;2023-02-11T09:47:31;6.18;;;3.20;;
64244;SDS011;50584;29.058;-110.966;2023-02-11T09:55:01;9.48;;;3.67;;
64244;SDS011;50584;29.058;-110.966;2023-02-11T09:57:34;17.00;;;4.63;;
64244;SDS011;50584;29.058;-110.966;2023-02-11T10:00:00;20.13;;;4.20;;
64244;SDS011;50584;29.058;-110.966;2023-02-11T10:20:25;14.18;;;4.40;;
64244;SDS011;50584;29.058;-110.966;2023-02-11T10:22:53;12.30;;;4.45;;
64244;SDS011;50584;29.058;-110.966;2023-02-11T10:28:15;20.58;;;5.10;;
64244;SDS011;50584;29.058;-110.966;2023-02-11T10:31:04;11.95;;;3.58;;
64244;SDS011;50584;29.058;-110.966;2023-02-11T10:36:12;12.90;;;4.07;;
64244;SDS011;50584;29.058;-110.966;2023-02-11T10:38:38;8.07;;;3.33;;
64244;SDS011;50584;29.058;-110.966;2023-02-11T10:41:05;6.82;;;3.28;;
64244;SDS011;50584;29.058;-110.966;2023-02-11T10:43:31;12.55;;;3.35;;
64244;SDS011;50584;29.058;-110.966;2023-02-11T10:45:57;8.13;;;3.58;;
64244;SDS011;50584;29.058;-110.966;2023-02-11T10:51:06;5.90;;;3.15;;
64244;SDS011;50584;29.058;-110.966;2023-02-11T10:53:32;19.02;;;3.50;;
64244;SDS011;50584;29.058;-110.966;2023-02-11T10:55:59;7.47;;;3.60;;
64244;SDS011;50584;29.058;-110.966;2023-02-11T10:58:27;11.48;;;3.72;;
64244;SDS011;50584;29.058;-110.966;2023-02-11T11:00:53;6.90;;;3.80;;
64244;SDS011;50584;29.058;-110.966;2023-02-11T11:03:23;11.18;;;4.00;;
64244;SDS011;50584;29.058;-110.966;2023-02-11T11:08:16;10.95;;;6.47;;
64244;SDS011;50584;29.058;-110.966;2023-02-11T11:18:33;5.75;;;4.15;;
64244;SDS011;50584;29.058;-110.966;2023-02-11T11:21:00;5.97;;;3.30;;
64244;SDS011;50584;29.058;-110.966;2023-02-11T11:23:27;10.57;;;3.58;;
64244;SDS011;50584;29.058;-110.966;2023-02-11T11:26:04;7.32;;;2.60;;
64244;SDS011;50584;29.058;-110.966;2023-02-11T11:28:31;8.05;;;2.20;;
64244;SDS011;50584;29.058;-110.966;2023-02-11T11:30:58;2.70;;;2.22;;
64244;SDS011;50584;29.058;-110.966;2023-02-11T11:33:25;7.90;;;2.25;;
64244;SDS011;50584;29.058;-110.966;2023-02-11T11:35:59;1.95;;;1.80;;
64244;SDS011;50584;29.058;-110.966;2023-02-11T11:38:26;3.28;;;1.70;;
64244;SDS011;50584;29.058;-110.966;2023-02-11T11:41:12;3.72;;;1.95;;
64244;SDS011;50584;29.058;-110.966;2023-02-11T11:43:38;2.50;;;1.80;;
64244;SDS011;50584;29.058;-110.966;2023-02-11T11:46:04;3.30;;;2.10;;
64244;SDS011;50584;29.058;-110.966;2023-02-11T11:48:33;7.35;;;1.92;;
64244;SDS011;50584;29.058;-110.966;2023-02-11T11:51:03;1.63;;;1.52;;
64244;SDS011;50584;29.058;-110.966;2023-02-11T11:53:40;3.55;;;1.65;;
64244;SDS011;50584;29.058;-110.966;2023-02-11T11:56:15;7.57;;;1.80;;
64244;SDS011;50584;29.058;-110.966;2023-02-11T11:58:42;6.07;;;1.80;;
64244;SDS011;50584;29.058;-110.966;2023-02-11T12:04:02;7.43;;;1.90;;
64244;SDS011;50584;29.058;-110.966;2023-02-11T12:39:56;5.68;;;2.67;;
64244;SDS011;50584;29.058;-110.966;2023-02-11T12:42:28;16.70;;;3.00;;
64244;SDS011;50584;29.058;-110.966;2023-02-11T12:53:05;15.40;;;2.95;;
64244;SDS011;50584;29.058;-110.966;2023-02-11T12:55:38;9.73;;;3.50;;
64244;SDS011;50584;29.058;-110.966;2023-02-11T12:58:04;9.80;;;2.45;;
64244;SDS011;50584;29.058;-110.966;2023-02-11T13:00:45;11.32;;;3.65;;
64244;SDS011;50584;29.058;-110.966;2023-02-11T13:03:14;10.00;;;3.40;;
64244;SDS011;50584;29.058;-110.966;2023-02-11T13:05:45;10.23;;;3.33;;
64244;SDS011;50584;29.058;-110.966;2023-02-11T13:10:50;13.38;;;4.07;;
64244;SDS011;50584;29.058;-110.966;2023-02-11T13:13:20;7.65;;;3.80;;
64244;SDS011;50584;29.058;-110.966;2023-02-11T13:26:04;6.25;;;3.78;;
64244;SDS011;50584;29.058;-110.966;2023-02-11T13:28:39;10.07;;;3.40;;
64244;SDS011;50584;29.058;-110.966;2023-02-11T13:31:08;14.43;;;3.92;;
64244;SDS011;50584;29.058;-110.966;2023-02-11T13:33:37;10.68;;;3.47;;
64244;SDS011;50584;29.058;-110.966;2023-02-11T13:36:16;9.20;;;3.50;;
64244;SDS011;50584;29.058;-110.966;2023-02-11T13:38:53;5.22;;;3.25;;
64244;SDS011;50584;29.058;-110.966;2023-02-11T13:46:23;9.60;;;3.05;;
64244;SDS011;50584;29.058;-110.966;2023-02-11T13:48:50;12.90;;;3.75;;
64244;SDS011;50584;29.058;-110.966;2023-02-11T13:51:18;17.45;;;4.07;;
64244;SDS011;50584;29.058;-110.966;2023-02-11T13:53:57;13.52;;;3.90;;
64244;SDS011;50584;29.058;-110.966;2023-02-11T13:56:30;17.17;;;3.63;;
64244;SDS011;50584;29.058;-110.966;2023-02-11T13:58:57;10.98;;;3.70;;
64244;SDS011;50584;29.058;-110.966;2023-02-11T14:04:23;14.80;;;3.60;;
64244;SDS011;50584;29.058;-110.966;2023-02-11T14:07:28;9.93;;;4.07;;
64244;SDS011;50584;29.058;-110.966;2023-02-11T14:13:29;8.13;;;3.38;;
64244;SDS011;50584;29.058;-110.966;2023-02-11T14:18:37;7.05;;;3.35;;
64244;SDS011;50584;29.058;-110.966;2023-02-11T14:21:13;14.27;;;3.42;;
64244;SDS011;50584;29.058;-110.966;2023-02-11T14:23:42;10.85;;;3.17;;
64244;SDS011;50584;29.058;-110.966;2023-02-11T14:28:47;13.77;;;3.60;;
64244;SDS011;50584;29.058;-110.966;2023-02-11T14:31:15;12.80;;;4.00;;
64244;SDS011;50584;29.058;-110.966;2023-02-11T14:39:13;8.90;;;4.40;;
64244;SDS011;50584;29.058;-110.966;2023-02-11T14:41:42;13.07;;;4.05;;
64244;SDS011;50584;29.058;-110.966;2023-02-11T14:44:13;15.82;;;3.92;;
64244;SDS011;50584;29.058;-110.966;2023-02-11T14:46:42;12.93;;;4.25;;
64244;SDS011;50584;29.058;-110.966;2023-02-11T14:49:11;29.77;;;5.15;;
64244;SDS011;50584;29.058;-110.966;2023-02-11T14:51:38;27.27;;;4.85;;
64244;SDS011;50584;29.058;-110.966;2023-02-11T14:54:15;16.48;;;3.88;;
64244;SDS011;50584;29.058;-110.966;2023-02-11T14:56:42;29.63;;;4.00;;
64244;SDS011;50584;29.058;-110.966;2023-02-11T14:59:19;12.93;;;3.83;;
64244;SDS011;50584;29.058;-110.966;2023-02-11T15:01:48;13.02;;;3.88;;
64244;SDS011;50584;29.058;-110.966;2023-02-11T15:04:22;19.13;;;4.03;;
64244;SDS011;50584;29.058;-110.966;2023-02-11T15:06:48;6.22;;;2.92;;
64244;SDS011;50584;29.058;-110.966;2023-02-11T15:11:52;12.00;;;2.55;;
64244;SDS011;50584;29.058;-110.966;2023-02-11T15:16:44;16.90;;;3.08;;
64244;SDS011;50584;29.058;-110.966;2023-02-11T15:19:44;11.57;;;2.88;;
64244;SDS011;50584;29.058;-110.966;2023-02-11T15:22:06;16.02;;;3.38;;
64244;SDS011;50584;29.058;-110.966;2023-02-11T15:24:34;13.90;;;3.22;;
64244;SDS011;50584;29.058;-110.966;2023-02-11T15:27:01;11.88;;;3.17;;
64244;SDS011;50584;29.058;-110.966;2023-02-11T15:29:38;9.40;;;2.80;;
64244;SDS011;50584;29.058;-110.966;2023-02-11T15:32:14;13.93;;;2.47;;
64244;SDS011;50584;29.058;-110.966;2023-02-11T15:34:41;5.78;;;2.30;;
64244;SDS011;50584;29.058;-110.966;2023-02-11T15:37:09;10.85;;;2.15;;
64244;SDS011;50584;29.058;-110.966;2023-02-11T15:39:37;22.92;;;2.78;;
64244;SDS011;50584;29.058;-110.966;2023-02-11T15:42:15;31.13;;;2.65;;
64244;SDS011;50584;29.058;-110.966;2023-02-11T15:44:41;11.55;;;2.20;;
64244;SDS011;50584;29.058;-110.966;2023-02-11T15:47:11;11.98;;;2.30;;
64244;SDS011;50584;29.058;-110.966;2023-02-11T15:49:37;12.90;;;2.20;;
64244;SDS011;50584;29.058;-110.966;2023-02-11T15:52:04;4.57;;;1.75;;
64244;SDS011;50584;29.058;-110.966;2023-02-11T15:54:32;14.75;;;2.90;;
64244;SDS011;50584;29.058;-110.966;2023-02-11T15:57:00;7.68;;;2.88;;
64244;SDS011;50584;29.058;-110.966;2023-02-11T15:59:37;18.40;;;3.00;;
64244;SDS011;50584;29.058;-110.966;2023-02-11T16:04:48;9.30;;;4.03;;
64244;SDS011;50584;29.058;-110.966;2023-02-11T16:09:58;64.53;;;27.30;;
64244;SDS011;50584;29.058;-110.966;2023-02-11T16:12:24;71.65;;;23.17;;
64244;SDS011;50584;29.058;-110.966;2023-02-11T16:14:51;73.78;;;21.48;;
64244;SDS011;50584;29.058;-110.966;2023-02-11T16:19:43;82.47;;;18.65;;
64244;SDS011;50584;29.058;-110.966;2023-02-11T16:22:10;22.70;;;5.65;;
64244;SDS011;50584;29.058;-110.966;2023-02-11T16:24:38;34.97;;;5.55;;
64244;SDS011;50584;29.058;-110.966;2023-02-11T16:27:17;22.45;;;3.53;;
64244;SDS011;50584;29.058;-110.966;2023-02-11T16:29:46;23.97;;;5.40;;
64244;SDS011;50584;29.058;-110.966;2023-02-11T16:32:20;25.13;;;6.63;;
64244;SDS011;50584;29.058;-110.966;2023-02-11T16:34:46;16.05;;;4.22;;
64244;SDS011;50584;29.058;-110.966;2023-02-11T16:37:13;16.73;;;4.03;;
64244;SDS011;50584;29.058;-110.966;2023-02-11T16:39:38;10.93;;;3.90;;
64244;SDS011;50584;29.058;-110.966;2023-02-11T16:42:04;16.80;;;4.68;;
64244;SDS011;50584;29.058;-110.966;2023-02-11T16:44:33;13.63;;;3.08;;
64244;SDS011;50584;29.058;-110.966;2023-02-11T16:46:59;20.23;;;3.55;;
64244;SDS011;50584;29.058;-110.966;2023-02-11T16:49:37;15.35;;;2.70;;
64244;SDS011;50584;29.058;-110.966;2023-02-11T16:52:06;10.57;;;2.40;;
64244;SDS011;50584;29.058;-110.966;2023-02-11T16:54:32;10.25;;;2.55;;
64244;SDS011;50584;29.058;-110.966;2023-02-11T16:56:58;17.55;;;3.50;;
64244;SDS011;50584;29.058;-110.966;2023-02-11T16:59:24;19.25;;;4.57;;
64244;SDS011;50584;29.058;-110.966;2023-02-11T17:01:50;10.25;;;3.35;;